Time;durP1;ratioP1;P1;durP2;ratioP2;P2;SDS_P1;SDS_P2;PMS_P1;PMS_P2;Temp;Humidity;BMP_temperature;BMP_pressure;BME280_temperature;BME280_humidity;BME280_pressure;Samples;Min_cycle;Max_cycle;Signal;HPM_P1;HPM_P2
2023/11/20 00:04:05;;;;;;;0.35;0.32;;;;;;;;;;10537851;28;20547;-76
2023/11/20 00:09:08;;;;;;;0.88;0.40;;;;;;;;;;10536333;27;20040;-76
2023/11/20 00:14:11;;;;;;;0.55;0.30;;;;;;;;;;10571963;27;20397;-76
2023/11/20 00:19:17;;;;;;;1.67;0.40;;;;;;;;;;10530181;28;20038;-76
2023/11/20 00:24:20;;;;;;;1.38;0.55;;;;;;;;;;10554588;28;20101;-77
2023/11/20 00:29:23;;;;;;;0.40;0.30;;;;;;;;;;10552150;28;20126;-76
2023/11/20 00:34:27;;;;;;;0.93;0.70;;;;;;;;;;10549090;28;20039;-76
2023/11/20 00:39:30;;;;;;;2.53;0.43;;;;;;;;;;10525025;28;20152;-77
2023/11/20 00:44:33;;;;;;;0.47;0.47;;;;;;;;;;10549176;28;20043;-76
2023/11/20 00:49:38;;;;;;;1.88;0.47;;;;;;;;;;10530173;28;20062;-76
2023/11/20 00:54:41;;;;;;;1.25;0.55;;;;;;;;;;10562179;27;20048;-78
2023/11/20 00:59:46;;;;;;;0.47;0.40;;;;;;;;;;10536810;28;20104;-78
2023/11/20 01:04:50;;;;;;;1.20;0.82;;;;;;;;;;10552329;28;20039;-77
2023/11/20 01:09:56;;;;;;;0.52;0.40;;;;;;;;;;10531577;28;20399;-75
2023/11/20 01:14:59;;;;;;;1.08;0.63;;;;;;;;;;10518866;28;20542;-76
2023/11/20 01:20:11;;;;;;;0.65;0.60;;;;;;;;;;10520193;28;20591;-77
2023/11/20 01:25:14;;;;;;;0.65;0.50;;;;;;;;;;10556385;27;20036;-77
2023/11/20 01:30:17;;;;;;;0.60;0.60;;;;;;;;;;10535440;27;20048;-77
2023/11/20 01:35:23;;;;;;;0.68;0.55;;;;;;;;;;10524637;27;20137;-78
2023/11/20 01:40:27;;;;;;;0.60;0.60;;;;;;;;;;10537061;27;20043;-76
2023/11/20 01:45:30;;;;;;;0.90;0.67;;;;;;;;;;10536739;27;20055;-76
2023/11/20 01:50:34;;;;;;;2.47;0.80;;;;;;;;;;10538795;28;20404;-76
2023/11/20 01:55:38;;;;;;;1.83;0.60;;;;;;;;;;10538592;27;20121;-77
2023/11/20 02:00:41;;;;;;;1.55;0.55;;;;;;;;;;10536636;28;20123;-81
2023/11/20 02:05:49;;;;;;;1.38;0.70;;;;;;;;;;10568368;27;20135;-75
2023/11/20 02:10:52;;;;;;;3.40;0.65;;;;;;;;;;10553152;27;20112;-75
2023/11/20 02:15:55;;;;;;;0.93;0.60;;;;;;;;;;10557549;27;20039;-75
2023/11/20 02:20:59;;;;;;;1.00;0.70;;;;;;;;;;10551716;27;20601;-75
2023/11/20 02:26:08;;;;;;;2.92;0.63;;;;;;;;;;10534602;28;20187;-75
2023/11/20 02:31:13;;;;;;;1.50;0.65;;;;;;;;;;10550795;27;20059;-76
2023/11/20 02:36:16;;;;;;;0.80;0.80;;;;;;;;;;10552689;27;20483;-76
2023/11/20 02:41:19;;;;;;;1.03;0.80;;;;;;;;;;10533540;27;20047;-76
2023/11/20 02:46:24;;;;;;;1.85;0.90;;;;;;;;;;10530998;27;20044;-78
2023/11/20 02:51:28;;;;;;;1.20;0.85;;;;;;;;;;10530048;27;20056;-77
2023/11/20 02:56:31;;;;;;;1.30;0.80;;;;;;;;;;10537405;27;20119;-76
2023/11/20 03:01:36;;;;;;;1.83;0.82;;;;;;;;;;10550861;27;20197;-76
2023/11/20 03:06:39;;;;;;;1.35;0.90;;;;;;;;;;10517870;27;20093;-76
2023/11/20 03:11:42;;;;;;;1.60;0.83;;;;;;;;;;10552550;27;20043;-76
2023/11/20 03:22:04;;;;;;;0.85;0.73;;;;;;;;;;10537898;27;20047;-76
2023/11/20 03:27:07;;;;;;;1.30;0.52;;;;;;;;;;10534581;27;20036;-76
2023/11/20 03:32:11;;;;;;;0.70;0.70;;;;;;;;;;10535213;27;20040;-76
2023/11/20 03:37:14;;;;;;;0.95;0.77;;;;;;;;;;10552189;27;22048;-76
2023/11/20 03:42:17;;;;;;;2.92;1.40;;;;;;;;;;10536209;27;20132;-76
2023/11/20 03:47:21;;;;;;;2.80;0.65;;;;;;;;;;10550793;28;20063;-76
2023/11/20 03:52:24;;;;;;;;;;;;;;;;;;10552862;28;20579;-76
2023/11/20 03:57:27;;;;;;;1.35;0.77;;;;;;;;;;10555576;27;19931;-76
2023/11/20 04:02:32;;;;;;;1.05;0.65;;;;;;;;;;10529925;27;20046;-76
2023/11/20 04:07:36;;;;;;;0.77;0.60;;;;;;;;;;10556171;28;20109;-76
2023/11/20 04:12:40;;;;;;;0.47;0.45;;;;;;;;;;10538529;27;20044;-75
2023/11/20 04:17:45;;;;;;;1.77;0.50;;;;;;;;;;10534303;27;20040;-74
2023/11/20 04:22:50;;;;;;;1.67;0.70;;;;;;;;;;10555587;28;20525;-75
2023/11/20 04:27:52;;;;;;;2.23;0.60;;;;;;;;;;10559150;28;20426;-75
2023/11/20 04:32:57;;;;;;;0.83;0.53;;;;;;;;;;10554744;28;20062;-75
2023/11/20 04:38:01;;;;;;;4.13;0.82;;;;;;;;;;10540199;28;20690;-77
2023/11/20 04:43:04;;;;;;;4.03;0.50;;;;;;;;;;10535900;28;20051;-77
2023/11/20 04:48:10;;;;;;;1.08;0.40;;;;;;;;;;10538763;28;20047;-76
2023/11/20 04:53:13;;;;;;;1.48;0.75;;;;;;;;;;10558844;28;20055;-77
2023/11/20 04:58:21;;;;;;;1.23;0.77;;;;;;;;;;10538668;27;20157;-76
2023/11/20 05:03:26;;;;;;;1.63;0.80;;;;;;;;;;10543159;28;20051;-76
2023/11/20 05:08:29;;;;;;;1.92;0.70;;;;;;;;;;10559575;27;20040;-78
2023/11/20 05:13:36;;;;;;;2.97;0.40;;;;;;;;;;10563261;27;20632;-78
2023/11/20 05:18:42;;;;;;;2.42;0.65;;;;;;;;;;10545464;27;20480;-77
2023/11/20 05:23:45;;;;;;;2.55;0.50;;;;;;;;;;10549941;27;20055;-76
2023/11/20 05:28:54;;;;;;;2.67;0.52;;;;;;;;;;10568150;27;20047;-77
2023/11/20 05:33:58;;;;;;;2.00;0.60;;;;;;;;;;10562396;27;20044;-78
2023/11/20 05:39:03;;;;;;;1.05;0.40;;;;;;;;;;10544441;27;20491;-77
2023/11/20 05:44:07;;;;;;;2.03;0.80;;;;;;;;;;10540461;27;20040;-77
2023/11/20 05:49:12;;;;;;;2.92;0.75;;;;;;;;;;10538138;27;21964;-78
2023/11/20 05:54:15;;;;;;;4.47;0.93;;;;;;;;;;10533042;27;20497;-78
2023/11/20 05:59:20;;;;;;;4.30;0.80;;;;;;;;;;10556216;27;20043;-78
2023/11/20 06:04:24;;;;;;;7.53;0.77;;;;;;;;;;10559667;27;20413;-76
2023/11/20 06:09:27;;;;;;;1.40;0.65;;;;;;;;;;10557525;27;20495;-76
2023/11/20 06:14:31;;;;;;;0.60;0.52;;;;;;;;;;10563789;27;20071;-75
2023/11/20 06:19:36;;;;;;;2.35;1.00;;;;;;;;;;10540362;27;20036;-77
2023/11/20 06:24:38;;;;;;;2.33;0.80;;;;;;;;;;10537141;28;20150;-76
2023/11/20 06:29:41;;;;;;;1.67;0.70;;;;;;;;;;10536564;27;20089;-77
2023/11/20 06:34:48;;;;;;;0.93;0.50;;;;;;;;;;10534908;27;20118;-78
2023/11/20 06:39:51;;;;;;;0.85;0.70;;;;;;;;;;10538646;27;20051;-77
2023/11/20 06:44:54;;;;;;;2.17;0.50;;;;;;;;;;10534448;28;20055;-78
2023/11/20 06:49:58;;;;;;;0.40;0.30;;;;;;;;;;10537829;27;20583;-77
2023/11/20 06:55:01;;;;;;;1.00;0.50;;;;;;;;;;10553486;27;20113;-77
2023/11/20 07:00:11;;;;;;;4.15;1.17;;;;;;;;;;10540087;27;20480;-77
2023/11/20 07:05:18;;;;;;;5.00;1.00;;;;;;;;;;10531664;27;20040;-77
2023/11/20 07:10:23;;;;;;;2.63;0.80;;;;;;;;;;10559089;27;20553;-78
2023/11/20 07:15:26;;;;;;;4.68;0.80;;;;;;;;;;10555596;27;20045;-77
2023/11/20 07:20:31;;;;;;;1.37;0.70;;;;;;;;;;10557700;27;20077;-77
2023/11/20 07:25:34;;;;;;;5.50;1.20;;;;;;;;;;10553965;27;20563;-76
2023/11/20 07:30:38;;;;;;;3.20;0.93;;;;;;;;;;10533724;27;20043;-77
2023/11/20 07:35:43;;;;;;;5.35;1.25;;;;;;;;;;10535769;27;20135;-75
2023/11/20 07:40:46;;;;;;;2.97;0.90;;;;;;;;;;10555569;28;20028;-77
2023/11/20 07:45:51;;;;;;;2.53;0.65;;;;;;;;;;10541087;27;20108;-78
2023/11/20 07:50:55;;;;;;;3.22;1.23;;;;;;;;;;10550555;27;20119;-76
2023/11/20 07:55:58;;;;;;;3.58;0.85;;;;;;;;;;10552715;28;20103;-77
2023/11/20 08:01:04;;;;;;;3.60;0.80;;;;;;;;;;10533242;27;21326;-77
2023/11/20 08:06:09;;;;;;;3.92;0.98;;;;;;;;;;10517158;28;20522;-77
2023/11/20 08:11:41;;;;;;;2.55;1.05;;;;;;;;;;10553587;28;20079;-77
2023/11/20 08:16:48;;;;;;;4.47;1.02;;;;;;;;;;10550935;28;20048;-77
2023/11/20 08:21:54;;;;;;;5.47;1.00;;;;;;;;;;10553352;28;20083;-77
2023/11/20 08:26:57;;;;;;;5.53;1.20;;;;;;;;;;10529278;27;20066;-77
2023/11/20 08:32:01;;;;;;;3.80;1.27;;;;;;;;;;10574944;27;20028;-78
2023/11/20 08:37:05;;;;;;;3.25;1.02;;;;;;;;;;10541606;28;20040;-78
2023/11/20 08:42:08;;;;;;;3.08;1.30;;;;;;;;;;10541134;27;20722;-77
2023/11/20 08:47:12;;;;;;;4.40;1.20;;;;;;;;;;10537292;28;20059;-77
2023/11/20 08:52:17;;;;;;;3.15;0.82;;;;;;;;;;10538534;27;20050;-77
2023/11/20 08:57:22;;;;;;;2.65;1.45;;;;;;;;;;10556833;27;20131;-77
2023/11/20 09:02:25;;;;;;;1.73;1.30;;;;;;;;;;10557532;27;20036;-77
2023/11/20 09:07:29;;;;;;;4.68;1.25;;;;;;;;;;10559040;27;20044;-77
2023/11/20 09:12:33;;;;;;;1.10;1.10;;;;;;;;;;10554625;27;20047;-78
2023/11/20 09:17:42;;;;;;;5.35;1.40;;;;;;;;;;10547038;27;20497;-77
2023/11/20 09:22:47;;;;;;;2.25;1.10;;;;;;;;;;10557834;27;20116;-77
2023/11/20 09:27:49;;;;;;;3.53;1.20;;;;;;;;;;10540024;27;20055;-77
2023/11/20 09:32:53;;;;;;;3.67;1.10;;;;;;;;;;10539600;27;20229;-78
2023/11/20 09:37:58;;;;;;;4.03;1.52;;;;;;;;;;10538588;27;20047;-78
2023/11/20 09:43:01;;;;;;;6.28;1.40;;;;;;;;;;10562515;27;20465;-78
2023/11/20 09:48:06;;;;;;;1.77;1.20;;;;;;;;;;10557543;27;20047;-77
2023/11/20 09:53:11;;;;;;;3.83;1.35;;;;;;;;;;10524776;27;20398;-78
2023/11/20 09:58:15;;;;;;;6.57;1.70;;;;;;;;;;10540185;28;20049;-78
2023/11/20 10:03:18;;;;;;;;;;;;;;;;;;10539897;27;20097;-77
2023/11/20 10:08:24;;;;;;;4.22;1.10;;;;;;;;;;10554491;27;19935;-77
2023/11/20 10:13:27;;;;;;;5.88;1.10;;;;;;;;;;10556998;27;20547;-76
2023/11/20 10:18:30;;;;;;;2.45;0.88;;;;;;;;;;10524152;27;20062;-77
2023/11/20 10:23:40;;;;;;;1.25;0.80;;;;;;;;;;10537961;27;20087;-77
2023/11/20 10:28:45;;;;;;;1.63;0.77;;;;;;;;;;10554792;27;20055;-78
2023/11/20 10:34:01;;;;;;;2.80;0.90;;;;;;;;;;10535662;28;20052;-78
2023/11/20 10:39:07;;;;;;;3.28;1.00;;;;;;;;;;10553442;27;20077;-78
2023/11/20 10:44:11;;;;;;;4.85;1.00;;;;;;;;;;10554509;27;20040;-77
2023/11/20 10:49:20;;;;;;;5.50;1.10;;;;;;;;;;10536078;27;20118;-78
2023/11/20 10:54:28;;;;;;;3.80;0.93;;;;;;;;;;10538812;28;20047;-77
2023/11/20 10:59:36;;;;;;;3.28;1.10;;;;;;;;;;10551444;27;20453;-78
2023/11/20 11:04:40;;;;;;;2.40;1.17;;;;;;;;;;10535942;27;20411;-78
2023/11/20 11:09:45;;;;;;;1.95;0.98;;;;;;;;;;10558031;27;20039;-77
2023/11/20 11:14:48;;;;;;;4.55;1.10;;;;;;;;;;10551806;27;20066;-80
2023/11/20 11:19:57;;;;;;;5.10;0.98;;;;;;;;;;10556122;27;20496;-80
2023/11/20 11:25:03;;;;;;;2.17;1.30;;;;;;;;;;10536225;27;20227;-78
2023/11/20 11:30:09;;;;;;;1.92;0.82;;;;;;;;;;10552137;27;20051;-80
2023/11/20 11:35:19;;;;;;;4.07;1.15;;;;;;;;;;10550246;28;20055;-78
2023/11/20 11:40:29;;;;;;;4.05;1.17;;;;;;;;;;10570006;27;20039;-78
2023/11/20 11:45:33;;;;;;;4.53;1.65;;;;;;;;;;10551790;27;20045;-78
2023/11/20 11:50:40;;;;;;;3.53;1.38;;;;;;;;;;10530221;28;20405;-78
2023/11/20 11:55:46;;;;;;;5.43;1.00;;;;;;;;;;10536922;27;20422;-79
2023/11/20 12:01:05;;;;;;;3.22;0.70;;;;;;;;;;10556626;27;20397;-77
2023/11/20 12:06:14;;;;;;;5.53;1.35;;;;;;;;;;10550057;28;20056;-77
2023/11/20 12:11:41;;;;;;;3.75;1.60;;;;;;;;;;10529580;28;20222;-77
2023/11/20 12:16:45;;;;;;;2.38;1.60;;;;;;;;;;10553796;28;20874;-77
2023/11/20 12:21:53;;;;;;;3.80;1.70;;;;;;;;;;10562576;27;20148;-77
2023/11/20 12:26:57;;;;;;;4.15;1.75;;;;;;;;;;10556527;28;20039;-77
2023/11/20 12:32:02;;;;;;;2.03;1.50;;;;;;;;;;10532138;28;20178;-78
2023/11/20 12:37:07;;;;;;;3.25;1.30;;;;;;;;;;10534018;28;20706;-77
2023/11/20 12:42:10;;;;;;;2.30;0.90;;;;;;;;;;10535240;28;20056;-77
2023/11/20 12:47:15;;;;;;;4.32;1.20;;;;;;;;;;10530932;28;20048;-77
2023/11/20 12:52:17;;;;;;;4.82;1.02;;;;;;;;;;10509544;28;20055;-78
2023/11/20 12:57:21;;;;;;;3.20;0.88;;;;;;;;;;10530997;28;20043;-78
2023/11/20 13:02:25;;;;;;;;;;;;;;;;;;10535659;28;20225;-77
2023/11/20 13:07:30;;;;;;;2.15;0.70;;;;;;;;;;10567248;27;19962;-77
2023/11/20 13:12:35;;;;;;;3.40;0.90;;;;;;;;;;10521275;28;20593;-76
2023/11/20 13:17:38;;;;;;;5.20;1.17;;;;;;;;;;10532893;27;20067;-76
2023/11/20 13:22:44;;;;;;;4.10;1.00;;;;;;;;;;10561222;27;20075;-77
2023/11/20 13:27:47;;;;;;;4.43;1.10;;;;;;;;;;10555935;27;20055;-76
2023/11/20 13:32:49;;;;;;;1.75;0.90;;;;;;;;;;10540199;27;20584;-77
2023/11/20 13:37:56;;;;;;;3.90;1.07;;;;;;;;;;10538203;27;20039;-77
2023/11/20 13:43:00;;;;;;;2.58;0.70;;;;;;;;;;10557578;27;20108;-77
2023/11/20 13:48:04;;;;;;;4.47;1.13;;;;;;;;;;10550560;27;20044;-77
2023/11/20 13:53:09;;;;;;;1.77;0.90;;;;;;;;;;10539831;28;20093;-77
2023/11/20 13:58:13;;;;;;;3.47;1.00;;;;;;;;;;10542164;27;20757;-76
2023/11/20 14:03:19;;;;;;;4.72;0.98;;;;;;;;;;10539696;27;20096;-77
2023/11/20 14:08:25;;;;;;;4.55;0.82;;;;;;;;;;10558581;28;20352;-77
2023/11/20 14:13:28;;;;;;;3.00;0.68;;;;;;;;;;10537678;28;20051;-76
2023/11/20 14:18:32;;;;;;;3.53;0.80;;;;;;;;;;10544584;27;20040;-76
2023/11/20 14:23:38;;;;;;;2.78;1.05;;;;;;;;;;10537322;27;20047;-76
2023/11/20 14:28:41;;;;;;;5.75;1.20;;;;;;;;;;10535999;27;20097;-76
2023/11/20 14:33:44;;;;;;;2.67;0.75;;;;;;;;;;10535552;28;20176;-76
2023/11/20 14:38:51;;;;;;;4.70;0.90;;;;;;;;;;10553915;27;20057;-77
2023/11/20 14:43:55;;;;;;;3.45;0.85;;;;;;;;;;10550899;27;20312;-77
2023/11/20 14:48:58;;;;;;;3.45;1.05;;;;;;;;;;10536952;27;20047;-75
2023/11/20 14:54:04;;;;;;;8.13;1.10;;;;;;;;;;10537037;27;20481;-76
2023/11/20 14:59:08;;;;;;;3.22;0.82;;;;;;;;;;10536170;27;20612;-77
2023/11/20 15:04:13;;;;;;;7.88;1.10;;;;;;;;;;10534146;27;20071;-76
2023/11/20 15:09:19;;;;;;;1.75;0.90;;;;;;;;;;10553291;27;20058;-76
2023/11/20 15:14:21;;;;;;;3.47;0.75;;;;;;;;;;10534119;28;20063;-75
2023/11/20 15:19:26;;;;;;;4.53;1.10;;;;;;;;;;10539745;27;20047;-76
2023/11/20 15:24:30;;;;;;;7.65;1.70;;;;;;;;;;10535324;27;20046;-76
2023/11/20 15:29:35;;;;;;;4.38;0.75;;;;;;;;;;10554797;27;20050;-76
2023/11/20 15:34:42;;;;;;;3.53;1.42;;;;;;;;;;10550004;27;20076;-76
2023/11/20 15:39:47;;;;;;;5.57;1.83;;;;;;;;;;10535708;27;20039;-76
2023/11/20 15:44:51;;;;;;;7.32;1.10;;;;;;;;;;10552533;27;20374;-76
2023/11/20 15:49:54;;;;;;;6.68;1.27;;;;;;;;;;10532788;28;20050;-76
2023/11/20 15:54:59;;;;;;;5.13;0.90;;;;;;;;;;10551179;27;20437;-75
2023/11/20 16:00:03;;;;;;;6.53;1.20;;;;;;;;;;10533859;28;20089;-75
2023/11/20 16:05:07;;;;;;;3.97;1.33;;;;;;;;;;10535316;28;20437;-75
2023/11/20 16:10:11;;;;;;;7.35;0.88;;;;;;;;;;10555163;27;20039;-74
2023/11/20 16:15:19;;;;;;;5.63;1.20;;;;;;;;;;10552009;28;20580;-75
2023/11/20 16:20:21;;;;;;;6.05;1.00;;;;;;;;;;10540207;28;20047;-76
2023/11/20 16:25:26;;;;;;;1.90;0.57;;;;;;;;;;10553141;28;20446;-76
2023/11/20 16:30:47;;;;;;;1.00;0.68;;;;;;;;;;10551829;28;20043;-75
2023/11/20 16:35:50;;;;;;;5.43;1.08;;;;;;;;;;10548801;28;20554;-75
2023/11/20 16:40:55;;;;;;;1.67;0.70;;;;;;;;;;10533099;28;20044;-77
2023/11/20 16:45:58;;;;;;;0.60;0.50;;;;;;;;;;10536431;28;20087;-76
2023/11/20 16:51:03;;;;;;;0.70;0.40;;;;;;;;;;10543198;27;20051;-76
2023/11/20 16:56:08;;;;;;;3.40;1.23;;;;;;;;;;10527681;27;20055;-75
2023/11/20 17:01:12;;;;;;;7.35;1.30;;;;;;;;;;10545269;27;20043;-76
2023/11/20 17:06:16;;;;;;;;;;;;;;;;;;10563880;27;20154;-76
2023/11/20 17:11:21;;;;;;;4.10;1.80;;;;;;;;;;10563656;28;19947;-75
2023/11/20 17:16:28;;;;;;;5.22;1.25;;;;;;;;;;10552634;28;20048;-75
2023/11/20 17:21:31;;;;;;;2.97;0.75;;;;;;;;;;10557381;28;20109;-75
2023/11/20 17:26:37;;;;;;;6.80;1.38;;;;;;;;;;10557752;28;20051;-75
2023/11/20 17:31:41;;;;;;;5.20;1.10;;;;;;;;;;10572529;28;20055;-74
2023/11/20 17:36:45;;;;;;;5.70;1.90;;;;;;;;;;10554113;27;20040;-75
2023/11/20 17:41:49;;;;;;;7.18;1.65;;;;;;;;;;10527186;28;20035;-75
2023/11/20 17:46:53;;;;;;;5.70;1.23;;;;;;;;;;10533982;28;20047;-75
2023/11/20 17:51:56;;;;;;;3.28;1.33;;;;;;;;;;10540983;27;20044;-75
2023/11/20 17:57:00;;;;;;;0.80;0.80;;;;;;;;;;10521814;27;20507;-76
2023/11/20 18:02:04;;;;;;;7.13;1.48;;;;;;;;;;10560668;27;20040;-75
2023/11/20 18:07:08;;;;;;;6.70;0.90;;;;;;;;;;10522707;27;20046;-76
2023/11/20 18:12:13;;;;;;;1.80;0.73;;;;;;;;;;10531105;27;20043;-75
2023/11/20 18:17:15;;;;;;;4.15;1.05;;;;;;;;;;10538945;27;20184;-75
2023/11/20 18:22:18;;;;;;;1.75;0.82;;;;;;;;;;10537402;27;20035;-75
2023/11/20 18:27:23;;;;;;;3.15;0.90;;;;;;;;;;10535506;28;20092;-76
2023/11/20 18:32:26;;;;;;;2.15;1.10;;;;;;;;;;10555342;27;20055;-75
2023/11/20 18:37:29;;;;;;;7.67;1.80;;;;;;;;;;10534017;27;20056;-75
2023/11/20 18:42:33;;;;;;;6.37;2.10;;;;;;;;;;10539889;27;20418;-75
2023/11/20 18:47:36;;;;;;;2.90;1.45;;;;;;;;;;10535789;27;20039;-76
2023/11/20 18:52:40;;;;;;;3.60;0.95;;;;;;;;;;10537737;28;20055;-75
2023/11/20 18:57:49;;;;;;;5.20;1.48;;;;;;;;;;10571871;27;20082;-75
2023/11/20 19:02:54;;;;;;;1.90;0.85;;;;;;;;;;10551419;27;20071;-75
2023/11/20 19:07:57;;;;;;;5.05;1.27;;;;;;;;;;10534537;28;20047;-76
2023/11/20 19:13:02;;;;;;;4.13;1.02;;;;;;;;;;10552579;27;20050;-75
2023/11/20 19:18:05;;;;;;;4.68;1.48;;;;;;;;;;10529495;28;20047;-75
2023/11/20 19:23:08;;;;;;;3.67;1.60;;;;;;;;;;10547272;28;20044;-75
2023/11/20 19:28:13;;;;;;;2.58;1.30;;;;;;;;;;10550084;27;20047;-76
2023/11/20 19:33:16;;;;;;;3.20;0.95;;;;;;;;;;10537714;27;20051;-75
2023/11/20 19:38:19;;;;;;;5.38;1.45;;;;;;;;;;10566414;27;20134;-76
2023/11/20 19:43:26;;;;;;;2.28;1.30;;;;;;;;;;10533668;28;20039;-75
2023/11/20 19:48:29;;;;;;;8.90;2.38;;;;;;;;;;10554171;28;20063;-75
2023/11/20 19:53:33;;;;;;;1.27;0.98;;;;;;;;;;10513376;28;20496;-75
2023/11/20 19:58:38;;;;;;;;;;;;;;;;;;10534241;28;20043;-75
2023/11/20 20:03:45;;;;;;;7.07;1.98;;;;;;;;;;10550332;28;20265;-75
2023/11/20 20:08:50;;;;;;;2.85;0.88;;;;;;;;;;10555875;27;20093;-75
2023/11/20 20:13:54;;;;;;;7.28;1.15;;;;;;;;;;10546877;28;20040;-75
2023/11/20 20:18:59;;;;;;;7.15;1.30;;;;;;;;;;10531078;28;20171;-74
2023/11/20 20:24:08;;;;;;;0.68;0.60;;;;;;;;;;10517839;28;20048;-78
2023/11/20 20:29:11;;;;;;;4.63;1.33;;;;;;;;;;10535914;28;20412;-78
2023/11/20 20:34:16;;;;;;;1.38;1.23;;;;;;;;;;10549735;28;20050;-78
2023/11/20 20:39:19;;;;;;;2.17;0.55;;;;;;;;;;10552951;28;20032;-78
2023/11/20 20:44:25;;;;;;;5.60;1.25;;;;;;;;;;10530459;28;20110;-78
2023/11/20 20:49:32;;;;;;;2.95;0.73;;;;;;;;;;10520212;28;20564;-78
2023/11/20 20:54:49;;;;;;;2.67;0.80;;;;;;;;;;10532780;28;20113;-78
2023/11/20 20:59:52;;;;;;;5.03;1.17;;;;;;;;;;10528418;28;20130;-78
2023/11/20 21:04:56;;;;;;;6.40;1.40;;;;;;;;;;10530755;28;20771;-77
2023/11/20 21:10:01;;;;;;;4.38;1.48;;;;;;;;;;10571073;27;20040;-79
2023/11/20 21:15:05;;;;;;;8.52;1.50;;;;;;;;;;10533167;28;20028;-78
2023/11/20 21:20:10;;;;;;;3.72;1.25;;;;;;;;;;10553049;28;20473;-78
2023/11/20 21:25:16;;;;;;;5.82;1.23;;;;;;;;;;10531807;28;20066;-79
2023/11/20 21:30:22;;;;;;;3.45;1.20;;;;;;;;;;10534673;28;20074;-76
2023/11/20 21:35:27;;;;;;;5.75;1.60;;;;;;;;;;10536555;27;20131;-78
2023/11/20 21:40:48;;;;;;;7.40;1.47;;;;;;;;;;10543657;27;20555;-78
2023/11/20 21:45:53;;;;;;;;;;;;;;;;;;10557874;27;20040;-78
2023/11/20 21:50:59;;;;;;;5.85;0.95;;;;;;;;;;10556363;27;19924;-77
2023/11/20 21:56:03;;;;;;;4.55;1.40;;;;;;;;;;10559204;27;20146;-78
2023/11/20 22:01:07;;;;;;;2.95;1.30;;;;;;;;;;10548293;28;20446;-78
2023/11/20 22:06:13;;;;;;;7.65;1.70;;;;;;;;;;10540057;27;20600;-78
2023/11/20 22:11:17;;;;;;;1.30;0.80;;;;;;;;;;10554788;27;20047;-77
2023/11/20 22:16:20;;;;;;;4.80;1.48;;;;;;;;;;10555313;27;20044;-76
2023/11/20 22:21:24;;;;;;;6.07;1.58;;;;;;;;;;10560855;27;20140;-76
2023/11/20 22:26:27;;;;;;;5.45;1.20;;;;;;;;;;10555380;27;20039;-76
2023/11/20 22:31:30;;;;;;;8.60;1.50;;;;;;;;;;10542597;27;20112;-74
2023/11/20 22:36:36;;;;;;;1.88;0.73;;;;;;;;;;10531409;27;20320;-74
2023/11/20 22:41:40;;;;;;;7.28;1.40;;;;;;;;;;10557833;28;20114;-74
2023/11/20 22:46:44;;;;;;;3.58;1.20;;;;;;;;;;10537142;27;20050;-75
2023/11/20 22:51:49;;;;;;;7.50;2.13;;;;;;;;;;10539321;28;20051;-75
2023/11/20 22:56:52;;;;;;;4.78;1.13;;;;;;;;;;10559427;27;20036;-75
2023/11/20 23:01:56;;;;;;;5.47;1.60;;;;;;;;;;10570165;27;20116;-76
2023/11/20 23:07:01;;;;;;;4.10;1.00;;;;;;;;;;10518286;27;20386;-77
2023/11/20 23:12:05;;;;;;;3.55;1.23;;;;;;;;;;10572350;27;20044;-76
2023/11/20 23:17:14;;;;;;;6.10;1.17;;;;;;;;;;10556716;27;20043;-76
2023/11/20 23:22:18;;;;;;;11.48;1.77;;;;;;;;;;10549941;27;20083;-77
2023/11/20 23:27:24;;;;;;;3.10;1.02;;;;;;;;;;10547509;27;20043;-76
2023/11/20 23:32:27;;;;;;;4.70;1.33;;;;;;;;;;10545744;28;20050;-76
2023/11/20 23:37:32;;;;;;;6.63;1.20;;;;;;;;;;10532586;27;20055;-76
2023/11/20 23:42:35;;;;;;;6.97;1.60;;;;;;;;;;10539587;27;20105;-77
2023/11/20 23:47:39;;;;;;;2.05;1.00;;;;;;;;;;10538157;27;20587;-75
2023/11/20 23:52:43;;;;;;;0.80;0.45;;;;;;;;;;10532721;27;20405;-75
2023/11/20 23:57:48;;;;;;;7.00;1.35;;;;;;;;;;10535972;28;20063;-75
